sensor_id;sensor_type;location;lat;lon;timestamp;P1;durP1;ratioP1;P2;durP2;ratioP2
38879;SDS011;25887;30.194;-97.880;2023-04-24T00:00:28;5.35;;;2.28;;
38879;SDS011;25887;30.194;-97.880;2023-04-24T00:02:56;3.08;;;1.92;;
38879;SDS011;25887;30.194;-97.880;2023-04-24T00:05:23;9.88;;;2.95;;
38879;SDS011;25887;30.194;-97.880;2023-04-24T00:07:50;5.43;;;1.70;;
38879;SDS011;25887;30.194;-97.880;2023-04-24T00:10:20;1.88;;;1.50;;
38879;SDS011;25887;30.194;-97.880;2023-04-24T00:12:46;2.63;;;1.90;;
38879;SDS011;25887;30.194;-97.880;2023-04-24T00:15:13;3.40;;;1.98;;
38879;SDS011;25887;30.194;-97.880;2023-04-24T00:17:39;2.50;;;1.67;;
38879;SDS011;25887;30.194;-97.880;2023-04-24T00:20:05;2.08;;;1.50;;
38879;SDS011;25887;30.194;-97.880;2023-04-24T00:22:32;2.17;;;1.75;;
38879;SDS011;25887;30.194;-97.880;2023-04-24T00:24:59;3.75;;;2.03;;
38879;SDS011;25887;30.194;-97.880;2023-04-24T00:27:25;2.35;;;1.55;;
38879;SDS011;25887;30.194;-97.880;2023-04-24T00:29:51;3.83;;;1.85;;
38879;SDS011;25887;30.194;-97.880;2023-04-24T00:32:17;2.75;;;1.67;;
38879;SDS011;25887;30.194;-97.880;2023-04-24T00:34:44;6.68;;;1.95;;
38879;SDS011;25887;30.194;-97.880;2023-04-24T00:37:10;4.55;;;1.90;;
38879;SDS011;25887;30.194;-97.880;2023-04-24T00:39:36;3.42;;;1.70;;
38879;SDS011;25887;30.194;-97.880;2023-04-24T00:42:03;8.07;;;2.05;;
38879;SDS011;25887;30.194;-97.880;2023-04-24T00:44:32;7.43;;;2.20;;
38879;SDS011;25887;30.194;-97.880;2023-04-24T00:47:00;3.70;;;1.83;;
38879;SDS011;25887;30.194;-97.880;2023-04-24T00:49:27;5.00;;;2.67;;
38879;SDS011;25887;30.194;-97.880;2023-04-24T00:51:54;2.35;;;1.70;;
38879;SDS011;25887;30.194;-97.880;2023-04-24T00:54:22;3.28;;;2.00;;
38879;SDS011;25887;30.194;-97.880;2023-04-24T00:56:48;4.60;;;1.83;;
38879;SDS011;25887;30.194;-97.880;2023-04-24T00:59:16;2.10;;;1.55;;
38879;SDS011;25887;30.194;-97.880;2023-04-24T01:01:43;2.97;;;1.77;;
38879;SDS011;25887;30.194;-97.880;2023-04-24T01:04:11;2.65;;;1.85;;
38879;SDS011;25887;30.194;-97.880;2023-04-24T01:06:40;2.35;;;1.70;;
38879;SDS011;25887;30.194;-97.880;2023-04-24T01:09:10;2.60;;;1.50;;
38879;SDS011;25887;30.194;-97.880;2023-04-24T01:11:37;1.98;;;1.50;;
38879;SDS011;25887;30.194;-97.880;2023-04-24T01:14:06;3.05;;;1.63;;
38879;SDS011;25887;30.194;-97.880;2023-04-24T01:16:33;2.35;;;1.45;;
38879;SDS011;25887;30.194;-97.880;2023-04-24T01:18:59;5.45;;;1.70;;
38879;SDS011;25887;30.194;-97.880;2023-04-24T01:21:26;2.38;;;1.40;;
38879;SDS011;25887;30.194;-97.880;2023-04-24T01:23:54;2.53;;;1.60;;
38879;SDS011;25887;30.194;-97.880;2023-04-24T01:26:22;2.10;;;1.63;;
38879;SDS011;25887;30.194;-97.880;2023-04-24T01:28:50;1.95;;;1.38;;
38879;SDS011;25887;30.194;-97.880;2023-04-24T01:31:17;4.55;;;1.60;;
38879;SDS011;25887;30.194;-97.880;2023-04-24T01:33:44;2.28;;;1.38;;
38879;SDS011;25887;30.194;-97.880;2023-04-24T01:36:11;5.85;;;1.42;;
38879;SDS011;25887;30.194;-97.880;2023-04-24T01:38:37;2.38;;;1.77;;
38879;SDS011;25887;30.194;-97.880;2023-04-24T01:41:03;6.70;;;1.88;;
38879;SDS011;25887;30.194;-97.880;2023-04-24T01:43:30;2.88;;;1.58;;
38879;SDS011;25887;30.194;-97.880;2023-04-24T01:45:57;2.00;;;1.48;;
38879;SDS011;25887;30.194;-97.880;2023-04-24T01:48:23;2.53;;;1.42;;
38879;SDS011;25887;30.194;-97.880;2023-04-24T01:50:49;1.48;;;1.30;;
38879;SDS011;25887;30.194;-97.880;2023-04-24T01:53:15;2.45;;;1.60;;
38879;SDS011;25887;30.194;-97.880;2023-04-24T01:55:42;2.50;;;1.60;;
38879;SDS011;25887;30.194;-97.880;2023-04-24T01:58:08;2.30;;;1.70;;
38879;SDS011;25887;30.194;-97.880;2023-04-24T02:00:35;3.22;;;1.77;;
38879;SDS011;25887;30.194;-97.880;2023-04-24T02:03:01;3.40;;;1.40;;
38879;SDS011;25887;30.194;-97.880;2023-04-24T02:05:27;3.95;;;1.70;;
38879;SDS011;25887;30.194;-97.880;2023-04-24T02:07:54;2.05;;;1.60;;
38879;SDS011;25887;30.194;-97.880;2023-04-24T02:10:20;4.57;;;2.03;;
38879;SDS011;25887;30.194;-97.880;2023-04-24T02:12:48;3.88;;;1.73;;
38879;SDS011;25887;30.194;-97.880;2023-04-24T02:15:14;2.67;;;1.35;;
38879;SDS011;25887;30.194;-97.880;2023-04-24T02:17:41;4.82;;;1.55;;
38879;SDS011;25887;30.194;-97.880;2023-04-24T02:20:07;3.83;;;1.50;;
38879;SDS011;25887;30.194;-97.880;2023-04-24T02:22:33;4.18;;;1.67;;
38879;SDS011;25887;30.194;-97.880;2023-04-24T02:25:09;1.65;;;1.30;;
38879;SDS011;25887;30.194;-97.880;2023-04-24T02:27:36;1.60;;;1.40;;
38879;SDS011;25887;30.194;-97.880;2023-04-24T02:30:02;1.92;;;1.30;;
38879;SDS011;25887;30.194;-97.880;2023-04-24T02:32:29;3.42;;;1.77;;
38879;SDS011;25887;30.194;-97.880;2023-04-24T02:34:56;3.47;;;1.50;;
38879;SDS011;25887;30.194;-97.880;2023-04-24T02:37:22;2.67;;;1.40;;
38879;SDS011;25887;30.194;-97.880;2023-04-24T02:39:48;2.03;;;1.40;;
38879;SDS011;25887;30.194;-97.880;2023-04-24T02:42:20;2.63;;;1.48;;
38879;SDS011;25887;30.194;-97.880;2023-04-24T02:44:47;2.03;;;1.33;;
38879;SDS011;25887;30.194;-97.880;2023-04-24T02:47:13;2.95;;;1.30;;
38879;SDS011;25887;30.194;-97.880;2023-04-24T02:49:39;4.93;;;1.50;;
38879;SDS011;25887;30.194;-97.880;2023-04-24T02:52:05;1.60;;;1.25;;
38879;SDS011;25887;30.194;-97.880;2023-04-24T02:54:32;4.65;;;1.60;;
38879;SDS011;25887;30.194;-97.880;2023-04-24T02:56:58;5.40;;;1.52;;
38879;SDS011;25887;30.194;-97.880;2023-04-24T02:59:25;3.20;;;1.58;;
38879;SDS011;25887;30.194;-97.880;2023-04-24T03:01:54;2.20;;;1.52;;
38879;SDS011;25887;30.194;-97.880;2023-04-24T03:04:20;2.65;;;1.40;;
38879;SDS011;25887;30.194;-97.880;2023-04-24T03:06:47;1.88;;;1.50;;
38879;SDS011;25887;30.194;-97.880;2023-04-24T03:09:13;4.30;;;1.73;;
38879;SDS011;25887;30.194;-97.880;2023-04-24T03:11:40;2.40;;;1.52;;
38879;SDS011;25887;30.194;-97.880;2023-04-24T03:14:06;1.35;;;1.20;;
38879;SDS011;25887;30.194;-97.880;2023-04-24T03:16:32;3.40;;;1.50;;
38879;SDS011;25887;30.194;-97.880;2023-04-24T03:18:58;2.78;;;1.67;;
38879;SDS011;25887;30.194;-97.880;2023-04-24T03:21:24;2.13;;;1.40;;
38879;SDS011;25887;30.194;-97.880;2023-04-24T03:23:51;1.77;;;1.42;;
38879;SDS011;25887;30.194;-97.880;2023-04-24T03:26:17;3.88;;;1.48;;
38879;SDS011;25887;30.194;-97.880;2023-04-24T03:28:44;1.98;;;1.27;;
38879;SDS011;25887;30.194;-97.880;2023-04-24T03:31:10;2.53;;;1.52;;
38879;SDS011;25887;30.194;-97.880;2023-04-24T03:33:36;1.85;;;1.40;;
38879;SDS011;25887;30.194;-97.880;2023-04-24T03:36:04;2.90;;;1.33;;
38879;SDS011;25887;30.194;-97.880;2023-04-24T03:38:30;2.63;;;1.25;;
38879;SDS011;25887;30.194;-97.880;2023-04-24T03:40:56;2.95;;;1.83;;
38879;SDS011;25887;30.194;-97.880;2023-04-24T03:43:22;6.07;;;1.40;;
38879;SDS011;25887;30.194;-97.880;2023-04-24T03:45:49;1.42;;;1.20;;
38879;SDS011;25887;30.194;-97.880;2023-04-24T03:48:15;2.22;;;1.60;;
38879;SDS011;25887;30.194;-97.880;2023-04-24T03:50:42;2.42;;;1.50;;
38879;SDS011;25887;30.194;-97.880;2023-04-24T03:53:08;5.32;;;2.15;;
38879;SDS011;25887;30.194;-97.880;2023-04-24T03:55:34;2.88;;;1.52;;
38879;SDS011;25887;30.194;-97.880;2023-04-24T03:58:00;2.35;;;1.60;;
38879;SDS011;25887;30.194;-97.880;2023-04-24T04:00:26;4.63;;;1.50;;
38879;SDS011;25887;30.194;-97.880;2023-04-24T04:02:53;4.75;;;1.40;;
38879;SDS011;25887;30.194;-97.880;2023-04-24T04:05:19;2.05;;;1.50;;
38879;SDS011;25887;30.194;-97.880;2023-04-24T04:07:46;1.35;;;1.17;;
38879;SDS011;25887;30.194;-97.880;2023-04-24T04:10:13;4.50;;;1.50;;
38879;SDS011;25887;30.194;-97.880;2023-04-24T04:12:39;2.33;;;1.48;;
38879;SDS011;25887;30.194;-97.880;2023-04-24T04:15:05;2.30;;;1.40;;
38879;SDS011;25887;30.194;-97.880;2023-04-24T04:17:32;5.10;;;1.70;;
38879;SDS011;25887;30.194;-97.880;2023-04-24T04:19:58;1.73;;;1.45;;
38879;SDS011;25887;30.194;-97.880;2023-04-24T04:22:25;2.70;;;1.40;;
38879;SDS011;25887;30.194;-97.880;2023-04-24T04:24:51;4.55;;;1.48;;
38879;SDS011;25887;30.194;-97.880;2023-04-24T04:27:17;1.67;;;1.33;;
38879;SDS011;25887;30.194;-97.880;2023-04-24T04:29:44;2.33;;;1.10;;
38879;SDS011;25887;30.194;-97.880;2023-04-24T04:32:11;4.95;;;1.30;;
38879;SDS011;25887;30.194;-97.880;2023-04-24T04:34:37;1.58;;;1.30;;
38879;SDS011;25887;30.194;-97.880;2023-04-24T04:37:06;2.15;;;1.20;;
38879;SDS011;25887;30.194;-97.880;2023-04-24T04:39:32;9.77;;;1.63;;
38879;SDS011;25887;30.194;-97.880;2023-04-24T04:41:58;4.22;;;1.55;;
38879;SDS011;25887;30.194;-97.880;2023-04-24T04:44:25;4.18;;;1.48;;
38879;SDS011;25887;30.194;-97.880;2023-04-24T04:46:52;3.53;;;1.20;;
38879;SDS011;25887;30.194;-97.880;2023-04-24T04:49:21;2.83;;;1.50;;
38879;SDS011;25887;30.194;-97.880;2023-04-24T04:51:49;2.22;;;1.40;;
38879;SDS011;25887;30.194;-97.880;2023-04-24T04:54:16;5.53;;;1.60;;
38879;SDS011;25887;30.194;-97.880;2023-04-24T04:56:42;2.40;;;1.35;;
38879;SDS011;25887;30.194;-97.880;2023-04-24T04:59:08;4.82;;;1.35;;
38879;SDS011;25887;30.194;-97.880;2023-04-24T05:01:34;6.13;;;1.50;;
38879;SDS011;25887;30.194;-97.880;2023-04-24T05:04:00;2.53;;;1.48;;
38879;SDS011;25887;30.194;-97.880;2023-04-24T05:06:26;1.75;;;1.50;;
38879;SDS011;25887;30.194;-97.880;2023-04-24T05:08:53;3.28;;;1.52;;
38879;SDS011;25887;30.194;-97.880;2023-04-24T05:11:22;5.75;;;1.65;;
38879;SDS011;25887;30.194;-97.880;2023-04-24T05:13:50;2.40;;;1.38;;
38879;SDS011;25887;30.194;-97.880;2023-04-24T05:16:16;1.42;;;1.08;;
38879;SDS011;25887;30.194;-97.880;2023-04-24T05:18:43;4.93;;;2.03;;
38879;SDS011;25887;30.194;-97.880;2023-04-24T05:21:09;2.70;;;1.38;;
38879;SDS011;25887;30.194;-97.880;2023-04-24T05:23:35;1.92;;;1.48;;
38879;SDS011;25887;30.194;-97.880;2023-04-24T05:26:01;1.92;;;1.40;;
38879;SDS011;25887;30.194;-97.880;2023-04-24T05:28:27;1.63;;;1.20;;
38879;SDS011;25887;30.194;-97.880;2023-04-24T05:30:54;2.15;;;1.60;;
38879;SDS011;25887;30.194;-97.880;2023-04-24T05:33:24;2.20;;;1.50;;
38879;SDS011;25887;30.194;-97.880;2023-04-24T05:35:50;4.40;;;1.80;;
38879;SDS011;25887;30.194;-97.880;2023-04-24T05:38:16;5.00;;;1.70;;
38879;SDS011;25887;30.194;-97.880;2023-04-24T05:40:45;2.38;;;1.77;;
38879;SDS011;25887;30.194;-97.880;2023-04-24T05:43:15;2.55;;;1.67;;
38879;SDS011;25887;30.194;-97.880;2023-04-24T05:45:42;9.18;;;1.70;;
38879;SDS011;25887;30.194;-97.880;2023-04-24T05:48:09;1.85;;;1.40;;
38879;SDS011;25887;30.194;-97.880;2023-04-24T05:50:38;1.98;;;1.63;;
38879;SDS011;25887;30.194;-97.880;2023-04-24T05:53:05;4.03;;;1.80;;
38879;SDS011;25887;30.194;-97.880;2023-04-24T05:55:32;4.22;;;1.67;;
38879;SDS011;25887;30.194;-97.880;2023-04-24T05:57:58;2.17;;;1.60;;
38879;SDS011;25887;30.194;-97.880;2023-04-24T06:00:25;3.08;;;1.67;;
38879;SDS011;25887;30.194;-97.880;2023-04-24T06:02:52;3.83;;;1.35;;
38879;SDS011;25887;30.194;-97.880;2023-04-24T06:05:18;3.08;;;1.95;;
38879;SDS011;25887;30.194;-97.880;2023-04-24T06:07:44;2.10;;;1.55;;
38879;SDS011;25887;30.194;-97.880;2023-04-24T06:10:11;5.28;;;1.85;;
38879;SDS011;25887;30.194;-97.880;2023-04-24T06:12:37;4.15;;;2.00;;
38879;SDS011;25887;30.194;-97.880;2023-04-24T06:15:03;3.50;;;1.77;;
38879;SDS011;25887;30.194;-97.880;2023-04-24T06:17:30;5.80;;;1.55;;
38879;SDS011;25887;30.194;-97.880;2023-04-24T06:19:57;2.42;;;1.67;;
38879;SDS011;25887;30.194;-97.880;2023-04-24T06:22:23;3.08;;;1.80;;
38879;SDS011;25887;30.194;-97.880;2023-04-24T06:24:50;2.97;;;2.00;;
38879;SDS011;25887;30.194;-97.880;2023-04-24T06:27:16;2.55;;;1.90;;
38879;SDS011;25887;30.194;-97.880;2023-04-24T06:29:42;2.22;;;1.90;;
38879;SDS011;25887;30.194;-97.880;2023-04-24T06:32:08;4.18;;;1.83;;
38879;SDS011;25887;30.194;-97.880;2023-04-24T06:34:34;3.45;;;2.00;;
38879;SDS011;25887;30.194;-97.880;2023-04-24T06:37:01;2.85;;;2.00;;
38879;SDS011;25887;30.194;-97.880;2023-04-24T06:39:28;4.25;;;2.03;;
38879;SDS011;25887;30.194;-97.880;2023-04-24T06:41:54;3.33;;;2.28;;
38879;SDS011;25887;30.194;-97.880;2023-04-24T06:44:21;2.67;;;1.83;;
38879;SDS011;25887;30.194;-97.880;2023-04-24T06:46:47;4.00;;;1.90;;
38879;SDS011;25887;30.194;-97.880;2023-04-24T06:49:13;6.65;;;1.90;;
38879;SDS011;25887;30.194;-97.880;2023-04-24T06:51:41;3.17;;;2.08;;
38879;SDS011;25887;30.194;-97.880;2023-04-24T06:54:07;3.88;;;1.90;;
38879;SDS011;25887;30.194;-97.880;2023-04-24T06:56:33;4.30;;;2.15;;
38879;SDS011;25887;30.194;-97.880;2023-04-24T06:58:59;2.75;;;1.77;;
38879;SDS011;25887;30.194;-97.880;2023-04-24T07:01:26;2.50;;;1.80;;
38879;SDS011;25887;30.194;-97.880;2023-04-24T07:03:52;3.42;;;2.08;;
38879;SDS011;25887;30.194;-97.880;2023-04-24T07:06:18;2.95;;;1.70;;
38879;SDS011;25887;30.194;-97.880;2023-04-24T07:08:48;3.70;;;2.50;;
38879;SDS011;25887;30.194;-97.880;2023-04-24T07:11:14;3.80;;;2.13;;
38879;SDS011;25887;30.194;-97.880;2023-04-24T07:13:40;4.40;;;2.45;;
38879;SDS011;25887;30.194;-97.880;2023-04-24T07:16:07;5.90;;;2.60;;
38879;SDS011;25887;30.194;-97.880;2023-04-24T07:18:33;3.78;;;2.22;;
38879;SDS011;25887;30.194;-97.880;2023-04-24T07:21:01;4.25;;;2.30;;
38879;SDS011;25887;30.194;-97.880;2023-04-24T07:23:28;6.25;;;2.80;;
38879;SDS011;25887;30.194;-97.880;2023-04-24T07:25:54;4.65;;;2.58;;
38879;SDS011;25887;30.194;-97.880;2023-04-24T07:28:20;4.53;;;2.97;;
38879;SDS011;25887;30.194;-97.880;2023-04-24T07:30:46;7.35;;;2.70;;
38879;SDS011;25887;30.194;-97.880;2023-04-24T07:33:12;4.40;;;2.60;;
38879;SDS011;25887;30.194;-97.880;2023-04-24T07:35:38;5.50;;;2.20;;
38879;SDS011;25887;30.194;-97.880;2023-04-24T07:38:04;4.32;;;2.13;;
38879;SDS011;25887;30.194;-97.880;2023-04-24T07:40:31;6.18;;;2.90;;
38879;SDS011;25887;30.194;-97.880;2023-04-24T07:42:57;4.28;;;2.38;;
38879;SDS011;25887;30.194;-97.880;2023-04-24T07:45:23;4.22;;;2.78;;
38879;SDS011;25887;30.194;-97.880;2023-04-24T07:47:51;4.18;;;2.45;;
38879;SDS011;25887;30.194;-97.880;2023-04-24T07:50:17;4.32;;;2.80;;
38879;SDS011;25887;30.194;-97.880;2023-04-24T07:52:44;7.18;;;3.33;;
38879;SDS011;25887;30.194;-97.880;2023-04-24T07:55:11;5.32;;;2.90;;
38879;SDS011;25887;30.194;-97.880;2023-04-24T07:57:38;4.70;;;3.00;;
38879;SDS011;25887;30.194;-97.880;2023-04-24T08:00:04;4.82;;;2.72;;
38879;SDS011;25887;30.194;-97.880;2023-04-24T08:02:31;7.68;;;3.03;;
38879;SDS011;25887;30.194;-97.880;2023-04-24T08:04:57;5.40;;;3.10;;
38879;SDS011;25887;30.194;-97.880;2023-04-24T08:07:23;5.78;;;3.35;;
38879;SDS011;25887;30.194;-97.880;2023-04-24T08:09:49;5.80;;;3.00;;
38879;SDS011;25887;30.194;-97.880;2023-04-24T08:12:15;4.30;;;2.92;;
38879;SDS011;25887;30.194;-97.880;2023-04-24T08:14:41;5.85;;;3.25;;
38879;SDS011;25887;30.194;-97.880;2023-04-24T08:17:08;5.03;;;3.38;;
38879;SDS011;25887;30.194;-97.880;2023-04-24T08:19:34;7.93;;;2.95;;
38879;SDS011;25887;30.194;-97.880;2023-04-24T08:22:00;6.65;;;3.33;;
38879;SDS011;25887;30.194;-97.880;2023-04-24T08:24:26;3.85;;;2.78;;
38879;SDS011;25887;30.194;-97.880;2023-04-24T08:26:53;4.63;;;2.80;;
38879;SDS011;25887;30.194;-97.880;2023-04-24T08:29:21;4.57;;;2.58;;
38879;SDS011;25887;30.194;-97.880;2023-04-24T08:31:48;6.50;;;2.95;;
38879;SDS011;25887;30.194;-97.880;2023-04-24T08:34:14;4.78;;;3.10;;
38879;SDS011;25887;30.194;-97.880;2023-04-24T08:36:40;4.82;;;2.83;;
38879;SDS011;25887;30.194;-97.880;2023-04-24T08:39:07;4.13;;;2.85;;
38879;SDS011;25887;30.194;-97.880;2023-04-24T08:41:33;6.60;;;3.05;;
38879;SDS011;25887;30.194;-97.880;2023-04-24T08:44:01;3.63;;;2.50;;
38879;SDS011;25887;30.194;-97.880;2023-04-24T08:46:28;4.35;;;2.90;;
38879;SDS011;25887;30.194;-97.880;2023-04-24T08:48:55;6.43;;;2.70;;
38879;SDS011;25887;30.194;-97.880;2023-04-24T08:51:23;4.40;;;2.55;;
38879;SDS011;25887;30.194;-97.880;2023-04-24T08:53:54;5.05;;;3.05;;
38879;SDS011;25887;30.194;-97.880;2023-04-24T08:56:21;3.42;;;2.45;;
38879;SDS011;25887;30.194;-97.880;2023-04-24T08:58:50;4.63;;;3.00;;
38879;SDS011;25887;30.194;-97.880;2023-04-24T09:01:17;3.42;;;2.50;;
38879;SDS011;25887;30.194;-97.880;2023-04-24T09:03:46;3.67;;;2.38;;
38879;SDS011;25887;30.194;-97.880;2023-04-24T09:06:16;4.00;;;2.72;;
38879;SDS011;25887;30.194;-97.880;2023-04-24T09:08:45;4.60;;;2.63;;
38879;SDS011;25887;30.194;-97.880;2023-04-24T09:11:12;3.22;;;2.22;;
38879;SDS011;25887;30.194;-97.880;2023-04-24T09:13:38;3.28;;;2.25;;
38879;SDS011;25887;30.194;-97.880;2023-04-24T09:16:05;2.83;;;2.22;;
38879;SDS011;25887;30.194;-97.880;2023-04-24T09:18:31;3.20;;;2.13;;
38879;SDS011;25887;30.194;-97.880;2023-04-24T09:21:02;4.60;;;2.58;;
38879;SDS011;25887;30.194;-97.880;2023-04-24T09:23:32;4.18;;;2.10;;
38879;SDS011;25887;30.194;-97.880;2023-04-24T09:25:58;3.80;;;2.30;;
38879;SDS011;25887;30.194;-97.880;2023-04-24T09:28:30;2.35;;;1.85;;
38879;SDS011;25887;30.194;-97.880;2023-04-24T09:31:04;4.68;;;2.63;;
38879;SDS011;25887;30.194;-97.880;2023-04-24T09:33:32;7.63;;;2.78;;
38879;SDS011;25887;30.194;-97.880;2023-04-24T09:35:58;4.95;;;2.72;;
38879;SDS011;25887;30.194;-97.880;2023-04-24T09:38:32;4.07;;;2.20;;
38879;SDS011;25887;30.194;-97.880;2023-04-24T09:43:31;4.60;;;2.17;;
38879;SDS011;25887;30.194;-97.880;2023-04-24T09:45:58;5.15;;;2.30;;
38879;SDS011;25887;30.194;-97.880;2023-04-24T09:48:30;2.60;;;1.65;;
38879;SDS011;25887;30.194;-97.880;2023-04-24T09:50:57;4.15;;;2.13;;
38879;SDS011;25887;30.194;-97.880;2023-04-24T09:53:25;2.53;;;1.77;;
38879;SDS011;25887;30.194;-97.880;2023-04-24T09:55:53;3.08;;;2.22;;
38879;SDS011;25887;30.194;-97.880;2023-04-24T09:58:26;4.85;;;2.67;;
38879;SDS011;25887;30.194;-97.880;2023-04-24T10:00:56;3.42;;;1.77;;
38879;SDS011;25887;30.194;-97.880;2023-04-24T10:03:25;4.68;;;1.83;;
38879;SDS011;25887;30.194;-97.880;2023-04-24T10:05:57;8.60;;;2.25;;
38879;SDS011;25887;30.194;-97.880;2023-04-24T10:08:33;2.97;;;1.67;;
38879;SDS011;25887;30.194;-97.880;2023-04-24T10:11:00;5.10;;;2.33;;
38879;SDS011;25887;30.194;-97.880;2023-04-24T10:13:27;3.97;;;2.33;;
38879;SDS011;25887;30.194;-97.880;2023-04-24T10:15:54;6.50;;;2.33;;
38879;SDS011;25887;30.194;-97.880;2023-04-24T10:18:24;9.55;;;2.85;;
38879;SDS011;25887;30.194;-97.880;2023-04-24T10:20:51;3.88;;;2.28;;
38879;SDS011;25887;30.194;-97.880;2023-04-24T10:23:20;5.13;;;2.40;;
38879;SDS011;25887;30.194;-97.880;2023-04-24T10:25:46;4.03;;;2.00;;
38879;SDS011;25887;30.194;-97.880;2023-04-24T10:28:15;5.10;;;2.80;;
38879;SDS011;25887;30.194;-97.880;2023-04-24T10:30:43;4.32;;;2.58;;
38879;SDS011;25887;30.194;-97.880;2023-04-24T10:33:10;3.45;;;2.20;;
38879;SDS011;25887;30.194;-97.880;2023-04-24T10:35:40;10.40;;;2.53;;
38879;SDS011;25887;30.194;-97.880;2023-04-24T10:38:13;6.10;;;2.58;;
38879;SDS011;25887;30.194;-97.880;2023-04-24T10:40:42;5.18;;;2.90;;
38879;SDS011;25887;30.194;-97.880;2023-04-24T10:43:09;8.77;;;2.83;;
38879;SDS011;25887;30.194;-97.880;2023-04-24T10:45:39;3.33;;;2.38;;
38879;SDS011;25887;30.194;-97.880;2023-04-24T10:48:08;4.88;;;2.25;;
38879;SDS011;25887;30.194;-97.880;2023-04-24T10:50:44;6.13;;;2.63;;
38879;SDS011;25887;30.194;-97.880;2023-04-24T10:53:15;4.80;;;2.60;;
38879;SDS011;25887;30.194;-97.880;2023-04-24T10:55:57;5.85;;;2.88;;
38879;SDS011;25887;30.194;-97.880;2023-04-24T10:58:24;6.05;;;3.00;;
38879;SDS011;25887;30.194;-97.880;2023-04-24T11:03:58;4.90;;;2.65;;
38879;SDS011;25887;30.194;-97.880;2023-04-24T11:06:29;12.02;;;3.35;;
38879;SDS011;25887;30.194;-97.880;2023-04-24T11:09:10;6.93;;;3.20;;
38879;SDS011;25887;30.194;-97.880;2023-04-24T11:11:44;7.68;;;3.30;;
38879;SDS011;25887;30.194;-97.880;2023-04-24T11:14:14;9.95;;;3.78;;
38879;SDS011;25887;30.194;-97.880;2023-04-24T11:16:44;5.47;;;3.10;;
38879;SDS011;25887;30.194;-97.880;2023-04-24T11:26:58;5.72;;;2.72;;
38879;SDS011;25887;30.194;-97.880;2023-04-24T11:35:00;4.82;;;2.95;;
38879;SDS011;25887;30.194;-97.880;2023-04-24T11:37:34;3.70;;;2.53;;
38879;SDS011;25887;30.194;-97.880;2023-04-24T11:40:11;4.50;;;2.63;;
38879;SDS011;25887;30.194;-97.880;2023-04-24T11:42:41;3.47;;;2.15;;
38879;SDS011;25887;30.194;-97.880;2023-04-24T11:45:12;4.38;;;2.53;;
38879;SDS011;25887;30.194;-97.880;2023-04-24T11:47:41;6.55;;;2.47;;
38879;SDS011;25887;30.194;-97.880;2023-04-24T11:50:11;3.75;;;2.65;;
38879;SDS011;25887;30.194;-97.880;2023-04-24T11:52:43;4.68;;;2.47;;
38879;SDS011;25887;30.194;-97.880;2023-04-24T11:57:39;3.97;;;2.30;;
38879;SDS011;25887;30.194;-97.880;2023-04-24T12:00:16;3.95;;;2.35;;
38879;SDS011;25887;30.194;-97.880;2023-04-24T12:02:43;3.20;;;2.30;;
38879;SDS011;25887;30.194;-97.880;2023-04-24T12:05:19;5.32;;;2.20;;
38879;SDS011;25887;30.194;-97.880;2023-04-24T12:07:46;4.00;;;2.20;;
38879;SDS011;25887;30.194;-97.880;2023-04-24T12:10:12;4.05;;;2.28;;
38879;SDS011;25887;30.194;-97.880;2023-04-24T12:12:39;3.67;;;2.33;;
38879;SDS011;25887;30.194;-97.880;2023-04-24T12:15:07;4.75;;;2.40;;
38879;SDS011;25887;30.194;-97.880;2023-04-24T12:17:36;4.03;;;2.40;;
38879;SDS011;25887;30.194;-97.880;2023-04-24T12:20:08;4.00;;;2.30;;
38879;SDS011;25887;30.194;-97.880;2023-04-24T12:22:48;3.88;;;2.30;;
38879;SDS011;25887;30.194;-97.880;2023-04-24T12:25:17;4.18;;;2.13;;
38879;SDS011;25887;30.194;-97.880;2023-04-24T12:27:44;3.63;;;1.92;;
38879;SDS011;25887;30.194;-97.880;2023-04-24T12:30:16;2.50;;;1.90;;
38879;SDS011;25887;30.194;-97.880;2023-04-24T12:32:47;3.08;;;1.80;;
38879;SDS011;25887;30.194;-97.880;2023-04-24T12:35:20;3.67;;;2.17;;
38879;SDS011;25887;30.194;-97.880;2023-04-24T12:37:48;3.03;;;1.98;;
38879;SDS011;25887;30.194;-97.880;2023-04-24T12:40:16;3.95;;;2.40;;
38879;SDS011;25887;30.194;-97.880;2023-04-24T12:42:50;4.28;;;2.35;;
38879;SDS011;25887;30.194;-97.880;2023-04-24T12:45:17;6.93;;;2.58;;
38879;SDS011;25887;30.194;-97.880;2023-04-24T12:47:44;3.05;;;2.15;;
38879;SDS011;25887;30.194;-97.880;2023-04-24T12:50:12;3.90;;;1.88;;
38879;SDS011;25887;30.194;-97.880;2023-04-24T12:52:41;7.03;;;2.45;;
38879;SDS011;25887;30.194;-97.880;2023-04-24T12:55:10;4.05;;;2.65;;
38879;SDS011;25887;30.194;-97.880;2023-04-24T12:57:38;3.55;;;2.53;;
38879;SDS011;25887;30.194;-97.880;2023-04-24T13:00:06;7.13;;;2.35;;
38879;SDS011;25887;30.194;-97.880;2023-04-24T13:02:33;5.20;;;2.30;;
38879;SDS011;25887;30.194;-97.880;2023-04-24T13:05:01;3.92;;;2.30;;
38879;SDS011;25887;30.194;-97.880;2023-04-24T13:07:30;3.00;;;2.10;;
38879;SDS011;25887;30.194;-97.880;2023-04-24T13:09:57;4.20;;;2.15;;
38879;SDS011;25887;30.194;-97.880;2023-04-24T13:12:24;4.85;;;2.70;;
38879;SDS011;25887;30.194;-97.880;2023-04-24T13:14:51;7.45;;;2.22;;
38879;SDS011;25887;30.194;-97.880;2023-04-24T13:17:18;3.25;;;2.28;;
38879;SDS011;25887;30.194;-97.880;2023-04-24T13:19:44;5.60;;;2.35;;
38879;SDS011;25887;30.194;-97.880;2023-04-24T13:22:11;4.78;;;2.80;;
38879;SDS011;25887;30.194;-97.880;2023-04-24T13:24:38;4.53;;;2.22;;
38879;SDS011;25887;30.194;-97.880;2023-04-24T13:27:07;4.00;;;2.42;;
38879;SDS011;25887;30.194;-97.880;2023-04-24T13:29:35;3.22;;;1.90;;
38879;SDS011;25887;30.194;-97.880;2023-04-24T13:32:01;3.97;;;2.35;;
38879;SDS011;25887;30.194;-97.880;2023-04-24T13:34:27;3.50;;;2.10;;
38879;SDS011;25887;30.194;-97.880;2023-04-24T13:36:54;6.18;;;2.80;;
38879;SDS011;25887;30.194;-97.880;2023-04-24T13:39:21;3.35;;;2.38;;
38879;SDS011;25887;30.194;-97.880;2023-04-24T13:41:48;4.47;;;2.92;;
38879;SDS011;25887;30.194;-97.880;2023-04-24T13:44:15;6.60;;;3.03;;
38879;SDS011;25887;30.194;-97.880;2023-04-24T13:46:44;7.15;;;2.40;;
38879;SDS011;25887;30.194;-97.880;2023-04-24T13:49:11;3.42;;;2.00;;
38879;SDS011;25887;30.194;-97.880;2023-04-24T13:51:39;6.13;;;2.70;;
38879;SDS011;25887;30.194;-97.880;2023-04-24T13:54:06;7.47;;;2.58;;
38879;SDS011;25887;30.194;-97.880;2023-04-24T13:56:34;3.92;;;2.60;;
38879;SDS011;25887;30.194;-97.880;2023-04-24T13:59:00;9.93;;;3.00;;
38879;SDS011;25887;30.194;-97.880;2023-04-24T14:01:27;7.20;;;3.05;;
38879;SDS011;25887;30.194;-97.880;2023-04-24T14:03:53;6.68;;;2.92;;
38879;SDS011;25887;30.194;-97.880;2023-04-24T14:06:21;4.70;;;3.00;;
38879;SDS011;25887;30.194;-97.880;2023-04-24T14:08:48;4.70;;;3.28;;
38879;SDS011;25887;30.194;-97.880;2023-04-24T14:11:16;7.20;;;3.10;;
38879;SDS011;25887;30.194;-97.880;2023-04-24T14:13:43;7.85;;;4.13;;
38879;SDS011;25887;30.194;-97.880;2023-04-24T14:16:10;5.65;;;3.22;;
38879;SDS011;25887;30.194;-97.880;2023-04-24T14:18:36;4.82;;;3.00;;
38879;SDS011;25887;30.194;-97.880;2023-04-24T14:21:03;8.50;;;3.65;;
38879;SDS011;25887;30.194;-97.880;2023-04-24T14:23:30;7.70;;;3.40;;
38879;SDS011;25887;30.194;-97.880;2023-04-24T14:25:57;4.72;;;3.05;;
38879;SDS011;25887;30.194;-97.880;2023-04-24T14:28:24;4.97;;;3.15;;
38879;SDS011;25887;30.194;-97.880;2023-04-24T14:30:51;4.75;;;2.88;;
38879;SDS011;25887;30.194;-97.880;2023-04-24T14:33:18;7.28;;;3.72;;
38879;SDS011;25887;30.194;-97.880;2023-04-24T14:35:44;5.18;;;2.80;;
38879;SDS011;25887;30.194;-97.880;2023-04-24T14:38:11;7.18;;;3.80;;
38879;SDS011;25887;30.194;-97.880;2023-04-24T14:40:37;5.13;;;3.15;;
38879;SDS011;25887;30.194;-97.880;2023-04-24T14:43:03;5.22;;;3.22;;